Aérodrome :







RETROUVEZ-NOUS SUR...

 
LOGIN :

S'inscrire | Disclaimer

   EN    FR    IT 

 









Légende :    VFR   VFR Marginal   IFR   IFR Intensif   IFR Très Intensif
Visi : 
Plafond : 
>= 8 km
>= 3000ft
5 à 8 km
1000 à 3000 ft
1500m à 5 km
500 à 1000 ft
800 à 1500m
200 à 500 ft
< 800m
< 200 ft
Symboles :   Orages  Brouillard  Fortes neiges  Fortes précipitations  Vent > 20 kt






- Altitude de l'aérodrome : 342 ft


KCON - Concord Municipal

DERNIER METAR :
  • 011251Z AUTO 30007KT 10SM CLR 11/02 A3018 RMK AO2 SLP222 T01060017

METARs EXPIRÉS :
  • 011151Z AUTO 34005KT 10SM CLR 09/03 A3019 RMK AO2 SLP223 T00890028 10089 20006 51009

TAF KCON
Valide du 01 à 12h jusqu'au 02 à 12h UTC


011120Z 0112/0212 VRB03KT P6SM BKN080
FM011300 31010G16KT P6SM BKN080
FM012200 31004KT P6SM BKN100
FIR KZBW / Amérique du Nord



MET'MAP, la Météo Aéronautique d'un coup d'oeil ! - Copyright ORBIFLY Décembre 2007 - Disclaimer

ORBIFLY MET'MAP TEAM :

Programmation & Développement : Alexandra Zaïnal
Sur une idée originale de : Baudouin d'Aumeries
Assistance à la programmation : Marc-Olivier Méhu
Soutien technique & logistique : Manuel Goepfert

Contact : metmap@orbifly.com




SOURCES & CREDITS :

   NOAA